sensor_id;sensor_type;location;lat;lon;timestamp;P1;durP1;ratioP1;P2;durP2;ratioP2
9264;SDS011;4669;49.594;10.958;2023-07-20T04:28:24;9.27;;;5.00;;
9264;SDS011;4669;49.594;10.958;2023-07-20T04:33:26;7.35;;;4.88;;
9264;SDS011;4669;49.594;10.958;2023-07-20T04:38:29;9.15;;;5.60;;
9264;SDS011;4669;49.594;10.958;2023-07-20T04:43:42;8.10;;;4.97;;
9264;SDS011;4669;49.594;10.958;2023-07-20T04:48:45;7.18;;;4.82;;
9264;SDS011;4669;49.594;10.958;2023-07-20T04:53:48;5.70;;;4.25;;
9264;SDS011;4669;49.594;10.958;2023-07-20T04:58:51;7.22;;;4.50;;
9264;SDS011;4669;49.594;10.958;2023-07-20T05:03:53;20.95;;;12.23;;
9264;SDS011;4669;49.594;10.958;2023-07-20T05:08:55;5.25;;;4.22;;
9264;SDS011;4669;49.594;10.958;2023-07-20T05:13:59;7.47;;;4.00;;
9264;SDS011;4669;49.594;10.958;2023-07-20T05:19:02;6.97;;;4.15;;
9264;SDS011;4669;49.594;10.958;2023-07-20T05:24:04;8.55;;;4.75;;
9264;SDS011;4669;49.594;10.958;2023-07-20T05:29:08;6.20;;;3.40;;
9264;SDS011;4669;49.594;10.958;2023-07-20T05:34:10;6.00;;;3.58;;
9264;SDS011;4669;49.594;10.958;2023-07-20T05:39:12;7.78;;;4.00;;
9264;SDS011;4669;49.594;10.958;2023-07-20T05:44:15;10.13;;;4.45;;
9264;SDS011;4669;49.594;10.958;2023-07-20T05:49:17;7.80;;;4.57;;
9264;SDS011;4669;49.594;10.958;2023-07-20T05:54:19;6.53;;;3.20;;
9264;SDS011;4669;49.594;10.958;2023-07-20T05:59:22;8.15;;;3.35;;
9264;SDS011;4669;49.594;10.958;2023-07-20T06:04:24;6.75;;;3.15;;
9264;SDS011;4669;49.594;10.958;2023-07-20T06:09:26;8.30;;;3.10;;
9264;SDS011;4669;49.594;10.958;2023-07-20T06:14:31;3.55;;;3.08;;
9264;SDS011;4669;49.594;10.958;2023-07-20T06:19:33;9.05;;;3.40;;
9264;SDS011;4669;49.594;10.958;2023-07-20T06:24:36;7.82;;;3.47;;
9264;SDS011;4669;49.594;10.958;2023-07-20T06:29:39;6.60;;;4.28;;
9264;SDS011;4669;49.594;10.958;2023-07-20T06:34:41;7.05;;;3.92;;
9264;SDS011;4669;49.594;10.958;2023-07-20T06:39:43;5.70;;;3.85;;
9264;SDS011;4669;49.594;10.958;2023-07-20T06:44:46;6.35;;;3.00;;
9264;SDS011;4669;49.594;10.958;2023-07-20T06:49:48;7.28;;;3.45;;
9264;SDS011;4669;49.594;10.958;2023-07-20T06:54:50;6.43;;;3.05;;
9264;SDS011;4669;49.594;10.958;2023-07-20T06:59:53;3.08;;;2.40;;
9264;SDS011;4669;49.594;10.958;2023-07-20T07:04:55;5.15;;;2.40;;
9264;SDS011;4669;49.594;10.958;2023-07-20T07:09:57;7.35;;;2.50;;
9264;SDS011;4669;49.594;10.958;2023-07-20T07:15:00;3.58;;;2.10;;
9264;SDS011;4669;49.594;10.958;2023-07-20T07:20:03;3.92;;;2.47;;
9264;SDS011;4669;49.594;10.958;2023-07-20T07:25:06;6.95;;;2.60;;
9264;SDS011;4669;49.594;10.958;2023-07-20T07:30:10;5.82;;;2.28;;
9264;SDS011;4669;49.594;10.958;2023-07-20T07:35:13;8.52;;;2.42;;
9264;SDS011;4669;49.594;10.958;2023-07-20T07:40:15;5.55;;;2.50;;
9264;SDS011;4669;49.594;10.958;2023-07-20T07:45:18;3.70;;;2.42;;
9264;SDS011;4669;49.594;10.958;2023-07-20T07:50:20;5.57;;;2.40;;
9264;SDS011;4669;49.594;10.958;2023-07-20T07:55:22;3.35;;;2.65;;
9264;SDS011;4669;49.594;10.958;2023-07-20T08:00:27;4.78;;;2.70;;
9264;SDS011;4669;49.594;10.958;2023-07-20T08:05:29;7.38;;;3.08;;
9264;SDS011;4669;49.594;10.958;2023-07-20T08:10:31;5.55;;;2.33;;
9264;SDS011;4669;49.594;10.958;2023-07-20T08:15:34;6.72;;;2.67;;
9264;SDS011;4669;49.594;10.958;2023-07-20T08:20:36;9.40;;;3.13;;
9264;SDS011;4669;49.594;10.958;2023-07-20T08:25:38;4.32;;;2.42;;
9264;SDS011;4669;49.594;10.958;2023-07-20T08:30:45;4.95;;;2.72;;
9264;SDS011;4669;49.594;10.958;2023-07-20T08:35:48;5.70;;;2.15;;
9264;SDS011;4669;49.594;10.958;2023-07-20T08:40:51;5.20;;;2.58;;
9264;SDS011;4669;49.594;10.958;2023-07-20T08:45:55;4.38;;;2.05;;
9264;SDS011;4669;49.594;10.958;2023-07-20T08:50:57;4.47;;;2.00;;
9264;SDS011;4669;49.594;10.958;2023-07-20T08:56:00;3.90;;;1.77;;
9264;SDS011;4669;49.594;10.958;2023-07-20T09:01:05;4.50;;;2.00;;
9264;SDS011;4669;49.594;10.958;2023-07-20T09:06:07;5.57;;;2.55;;
9264;SDS011;4669;49.594;10.958;2023-07-20T09:11:10;6.00;;;2.10;;
9264;SDS011;4669;49.594;10.958;2023-07-20T09:16:15;7.45;;;2.22;;
9264;SDS011;4669;49.594;10.958;2023-07-20T09:21:17;2.50;;;1.70;;
9264;SDS011;4669;49.594;10.958;2023-07-20T09:26:20;8.13;;;2.13;;
9264;SDS011;4669;49.594;10.958;2023-07-20T09:31:23;4.32;;;2.00;;
9264;SDS011;4669;49.594;10.958;2023-07-20T09:36:26;3.95;;;1.58;;
9264;SDS011;4669;49.594;10.958;2023-07-20T09:41:28;4.53;;;1.73;;
9264;SDS011;4669;49.594;10.958;2023-07-20T09:46:42;5.18;;;1.45;;
9264;SDS011;4669;49.594;10.958;2023-07-20T09:51:44;2.08;;;1.45;;
9264;SDS011;4669;49.594;10.958;2023-07-20T09:56:47;5.65;;;1.65;;
9264;SDS011;4669;49.594;10.958;2023-07-20T10:01:53;4.68;;;1.30;;
9264;SDS011;4669;49.594;10.958;2023-07-20T10:06:59;3.85;;;1.80;;
9264;SDS011;4669;49.594;10.958;2023-07-20T10:12:02;3.05;;;1.73;;
9264;SDS011;4669;49.594;10.958;2023-07-20T10:17:06;3.67;;;1.50;;
9264;SDS011;4669;49.594;10.958;2023-07-20T10:22:12;2.25;;;1.15;;
9264;SDS011;4669;49.594;10.958;2023-07-20T10:27:16;3.40;;;1.40;;
9264;SDS011;4669;49.594;10.958;2023-07-20T10:32:20;4.10;;;1.80;;
9264;SDS011;4669;49.594;10.958;2023-07-20T10:42:59;3.65;;;1.20;;
9264;SDS011;4669;49.594;10.958;2023-07-20T10:48:04;2.17;;;1.40;;
9264;SDS011;4669;49.594;10.958;2023-07-20T10:53:10;2.92;;;1.40;;
9264;SDS011;4669;49.594;10.958;2023-07-20T10:58:13;3.47;;;1.30;;
9264;SDS011;4669;49.594;10.958;2023-07-20T11:03:27;1.30;;;1.20;;
9264;SDS011;4669;49.594;10.958;2023-07-20T11:08:37;3.00;;;1.30;;
9264;SDS011;4669;49.594;10.958;2023-07-20T11:13:50;2.45;;;1.40;;
9264;SDS011;4669;49.594;10.958;2023-07-20T11:18:56;8.10;;;2.53;;
9264;SDS011;4669;49.594;10.958;2023-07-20T11:23:59;1.23;;;1.13;;
9264;SDS011;4669;49.594;10.958;2023-07-20T11:29:04;2.67;;;1.67;;
9264;SDS011;4669;49.594;10.958;2023-07-20T11:34:09;3.08;;;1.58;;
9264;SDS011;4669;49.594;10.958;2023-07-20T11:39:13;1.60;;;1.27;;
9264;SDS011;4669;49.594;10.958;2023-07-20T11:44:16;2.20;;;1.40;;
9264;SDS011;4669;49.594;10.958;2023-07-20T11:49:19;6.47;;;1.60;;
9264;SDS011;4669;49.594;10.958;2023-07-20T11:54:21;2.58;;;1.17;;
9264;SDS011;4669;49.594;10.958;2023-07-20T11:59:24;1.88;;;1.05;;
9264;SDS011;4669;49.594;10.958;2023-07-20T12:04:27;2.08;;;1.55;;
9264;SDS011;4669;49.594;10.958;2023-07-20T12:09:29;1.58;;;1.30;;
9264;SDS011;4669;49.594;10.958;2023-07-20T12:14:31;1.40;;;1.30;;
9264;SDS011;4669;49.594;10.958;2023-07-20T12:19:37;1.60;;;1.45;;
9264;SDS011;4669;49.594;10.958;2023-07-20T12:24:39;5.68;;;1.52;;
9264;SDS011;4669;49.594;10.958;2023-07-20T12:29:41;1.67;;;1.25;;
9264;SDS011;4669;49.594;10.958;2023-07-20T12:34:44;1.92;;;1.30;;
9264;SDS011;4669;49.594;10.958;2023-07-20T12:39:46;2.20;;;1.35;;
9264;SDS011;4669;49.594;10.958;2023-07-20T12:44:48;6.00;;;1.52;;
9264;SDS011;4669;49.594;10.958;2023-07-20T12:49:52;2.63;;;1.40;;
9264;SDS011;4669;49.594;10.958;2023-07-20T12:54:54;1.50;;;1.38;;
9264;SDS011;4669;49.594;10.958;2023-07-20T12:59:56;6.38;;;1.60;;
9264;SDS011;4669;49.594;10.958;2023-07-20T13:04:59;6.80;;;1.50;;
9264;SDS011;4669;49.594;10.958;2023-07-20T13:10:01;3.30;;;1.60;;
9264;SDS011;4669;49.594;10.958;2023-07-20T13:15:04;4.80;;;1.63;;
9264;SDS011;4669;49.594;10.958;2023-07-20T13:20:09;2.38;;;1.50;;
9264;SDS011;4669;49.594;10.958;2023-07-20T13:25:12;4.07;;;1.63;;
9264;SDS011;4669;49.594;10.958;2023-07-20T13:30:14;5.57;;;1.60;;
9264;SDS011;4669;49.594;10.958;2023-07-20T13:35:18;6.32;;;1.60;;
9264;SDS011;4669;49.594;10.958;2023-07-20T13:40:20;1.40;;;1.27;;
9264;SDS011;4669;49.594;10.958;2023-07-20T13:45:23;3.50;;;1.50;;
9264;SDS011;4669;49.594;10.958;2023-07-20T13:50:26;3.03;;;1.30;;
9264;SDS011;4669;49.594;10.958;2023-07-20T13:55:29;1.77;;;1.65;;
9264;SDS011;4669;49.594;10.958;2023-07-20T14:00:31;2.67;;;1.45;;
9264;SDS011;4669;49.594;10.958;2023-07-20T14:05:34;5.30;;;1.48;;
9264;SDS011;4669;49.594;10.958;2023-07-20T14:10:36;1.67;;;1.15;;
9264;SDS011;4669;49.594;10.958;2023-07-20T14:15:38;1.40;;;1.20;;
9264;SDS011;4669;49.594;10.958;2023-07-20T14:20:42;1.30;;;1.20;;
9264;SDS011;4669;49.594;10.958;2023-07-20T14:25:44;1.98;;;1.33;;
9264;SDS011;4669;49.594;10.958;2023-07-20T14:30:46;1.70;;;1.35;;
9264;SDS011;4669;49.594;10.958;2023-07-20T14:35:49;2.45;;;1.40;;
9264;SDS011;4669;49.594;10.958;2023-07-20T14:40:51;1.63;;;1.52;;
9264;SDS011;4669;49.594;10.958;2023-07-20T14:45:53;1.85;;;1.25;;
9264;SDS011;4669;49.594;10.958;2023-07-20T14:50:56;2.60;;;1.33;;
9264;SDS011;4669;49.594;10.958;2023-07-20T14:55:59;2.65;;;1.83;;
9264;SDS011;4669;49.594;10.958;2023-07-20T15:01:01;3.80;;;1.63;;
9264;SDS011;4669;49.594;10.958;2023-07-20T15:06:05;1.83;;;1.38;;
9264;SDS011;4669;49.594;10.958;2023-07-20T15:11:11;1.48;;;1.38;;
9264;SDS011;4669;49.594;10.958;2023-07-20T15:16:13;5.25;;;1.55;;
9264;SDS011;4669;49.594;10.958;2023-07-20T15:21:16;1.90;;;1.58;;
9264;SDS011;4669;49.594;10.958;2023-07-20T15:26:18;3.53;;;3.13;;
9264;SDS011;4669;49.594;10.958;2023-07-20T15:31:21;1.40;;;1.30;;
9264;SDS011;4669;49.594;10.958;2023-07-20T15:36:24;1.58;;;1.27;;
9264;SDS011;4669;49.594;10.958;2023-07-20T15:41:26;3.20;;;1.77;;
9264;SDS011;4669;49.594;10.958;2023-07-20T15:46:43;1.63;;;1.40;;
9264;SDS011;4669;49.594;10.958;2023-07-20T15:51:47;2.00;;;1.80;;
9264;SDS011;4669;49.594;10.958;2023-07-20T15:56:49;4.95;;;1.58;;
9264;SDS011;4669;49.594;10.958;2023-07-20T16:01:51;1.98;;;1.58;;
9264;SDS011;4669;49.594;10.958;2023-07-20T16:06:54;1.58;;;1.30;;
9264;SDS011;4669;49.594;10.958;2023-07-20T16:11:56;5.18;;;1.38;;
9264;SDS011;4669;49.594;10.958;2023-07-20T16:16:58;2.85;;;2.20;;
9264;SDS011;4669;49.594;10.958;2023-07-20T16:22:01;1.92;;;1.30;;
9264;SDS011;4669;49.594;10.958;2023-07-20T16:27:05;2.67;;;1.33;;
9264;SDS011;4669;49.594;10.958;2023-07-20T16:32:07;1.88;;;1.40;;
9264;SDS011;4669;49.594;10.958;2023-07-20T16:37:11;1.77;;;1.20;;
9264;SDS011;4669;49.594;10.958;2023-07-20T16:42:12;2.47;;;1.48;;
9264;SDS011;4669;49.594;10.958;2023-07-20T16:47:15;3.78;;;1.30;;
9264;SDS011;4669;49.594;10.958;2023-07-20T16:52:18;1.27;;;1.17;;
9264;SDS011;4669;49.594;10.958;2023-07-20T16:57:20;1.58;;;1.40;;
9264;SDS011;4669;49.594;10.958;2023-07-20T17:02:22;3.28;;;1.30;;
9264;SDS011;4669;49.594;10.958;2023-07-20T17:07:25;1.45;;;1.20;;
9264;SDS011;4669;49.594;10.958;2023-07-20T17:12:27;1.40;;;1.30;;
9264;SDS011;4669;49.594;10.958;2023-07-20T17:17:29;1.48;;;1.20;;
9264;SDS011;4669;49.594;10.958;2023-07-20T17:22:33;0.90;;;0.90;;
9264;SDS011;4669;49.594;10.958;2023-07-20T17:27:35;5.32;;;1.40;;
9264;SDS011;4669;49.594;10.958;2023-07-20T17:32:37;3.40;;;1.58;;
9264;SDS011;4669;49.594;10.958;2023-07-20T17:37:40;1.17;;;1.08;;
9264;SDS011;4669;49.594;10.958;2023-07-20T17:42:42;3.15;;;1.25;;
9264;SDS011;4669;49.594;10.958;2023-07-20T17:47:44;1.45;;;1.20;;
9264;SDS011;4669;49.594;10.958;2023-07-20T17:52:47;2.75;;;1.38;;
9264;SDS011;4669;49.594;10.958;2023-07-20T17:57:49;4.72;;;1.75;;
9264;SDS011;4669;49.594;10.958;2023-07-20T18:02:51;3.03;;;1.42;;
9264;SDS011;4669;49.594;10.958;2023-07-20T18:07:54;1.42;;;1.30;;
9264;SDS011;4669;49.594;10.958;2023-07-20T18:12:56;1.40;;;1.30;;
9264;SDS011;4669;49.594;10.958;2023-07-20T18:17:58;1.20;;;1.10;;
9264;SDS011;4669;49.594;10.958;2023-07-20T18:23:01;2.13;;;1.30;;
9264;SDS011;4669;49.594;10.958;2023-07-20T18:28:04;2.83;;;1.40;;
9264;SDS011;4669;49.594;10.958;2023-07-20T18:33:06;1.75;;;1.30;;
9264;SDS011;4669;49.594;10.958;2023-07-20T18:38:10;3.90;;;1.50;;
9264;SDS011;4669;49.594;10.958;2023-07-20T18:43:13;3.05;;;1.40;;
9264;SDS011;4669;49.594;10.958;2023-07-20T18:48:15;1.85;;;1.30;;
9264;SDS011;4669;49.594;10.958;2023-07-20T18:53:18;1.50;;;1.30;;
9264;SDS011;4669;49.594;10.958;2023-07-20T18:58:20;2.72;;;1.45;;
9264;SDS011;4669;49.594;10.958;2023-07-20T19:03:22;2.78;;;1.45;;
9264;SDS011;4669;49.594;10.958;2023-07-20T19:08:25;6.93;;;5.00;;
9264;SDS011;4669;49.594;10.958;2023-07-20T19:13:27;3.03;;;2.72;;
9264;SDS011;4669;49.594;10.958;2023-07-20T19:18:29;5.07;;;1.50;;
9264;SDS011;4669;49.594;10.958;2023-07-20T19:23:33;3.85;;;1.73;;
9264;SDS011;4669;49.594;10.958;2023-07-20T19:28:35;2.20;;;1.60;;
9264;SDS011;4669;49.594;10.958;2023-07-20T19:33:37;5.38;;;1.80;;
9264;SDS011;4669;49.594;10.958;2023-07-20T19:38:41;3.35;;;1.60;;
9264;SDS011;4669;49.594;10.958;2023-07-20T19:43:43;4.65;;;3.00;;
9264;SDS011;4669;49.594;10.958;2023-07-20T19:48:46;2.45;;;2.10;;
9264;SDS011;4669;49.594;10.958;2023-07-20T19:53:49;3.25;;;1.83;;
9264;SDS011;4669;49.594;10.958;2023-07-20T19:58:51;2.60;;;2.00;;
9264;SDS011;4669;49.594;10.958;2023-07-20T20:03:53;3.92;;;2.22;;
9264;SDS011;4669;49.594;10.958;2023-07-20T20:08:57;3.72;;;2.50;;
9264;SDS011;4669;49.594;10.958;2023-07-20T20:13:59;4.00;;;2.35;;
9264;SDS011;4669;49.594;10.958;2023-07-20T20:19:01;1.80;;;1.70;;
9264;SDS011;4669;49.594;10.958;2023-07-20T20:24:04;3.47;;;2.30;;
9264;SDS011;4669;49.594;10.958;2023-07-20T20:29:06;4.45;;;2.20;;
9264;SDS011;4669;49.594;10.958;2023-07-20T20:34:08;3.20;;;2.17;;
9264;SDS011;4669;49.594;10.958;2023-07-20T20:39:11;2.53;;;1.83;;
9264;SDS011;4669;49.594;10.958;2023-07-20T20:44:13;2.45;;;2.25;;
9264;SDS011;4669;49.594;10.958;2023-07-20T20:49:17;1.85;;;1.75;;
9264;SDS011;4669;49.594;10.958;2023-07-20T20:54:21;4.07;;;2.25;;
9264;SDS011;4669;49.594;10.958;2023-07-20T20:59:23;3.28;;;1.70;;
9264;SDS011;4669;49.594;10.958;2023-07-20T21:04:24;2.70;;;2.05;;
9264;SDS011;4669;49.594;10.958;2023-07-20T21:09:28;3.75;;;2.10;;
9264;SDS011;4669;49.594;10.958;2023-07-20T21:14:30;4.55;;;2.60;;
9264;SDS011;4669;49.594;10.958;2023-07-20T21:19:31;3.72;;;2.60;;
9264;SDS011;4669;49.594;10.958;2023-07-20T21:24:35;3.13;;;2.30;;
9264;SDS011;4669;49.594;10.958;2023-07-20T21:29:37;7.70;;;2.55;;
9264;SDS011;4669;49.594;10.958;2023-07-20T21:34:38;5.43;;;2.40;;
9264;SDS011;4669;49.594;10.958;2023-07-20T21:39:42;3.58;;;2.38;;
9264;SDS011;4669;49.594;10.958;2023-07-20T21:44:44;3.25;;;2.33;;
9264;SDS011;4669;49.594;10.958;2023-07-20T21:49:46;2.80;;;2.42;;
9264;SDS011;4669;49.594;10.958;2023-07-20T21:54:49;2.20;;;2.00;;
9264;SDS011;4669;49.594;10.958;2023-07-20T21:59:52;2.53;;;1.90;;
